createdAt,value
2018-04-15T00:01:49.207Z,12.35
2018-04-15T00:04:16.815Z,12.30
2018-04-15T00:06:44.465Z,12.05
2018-04-15T00:09:12.112Z,11.74
2018-04-15T00:11:39.795Z,11.80
2018-04-15T00:14:07.396Z,11.56
2018-04-15T00:16:35.026Z,11.64
2018-04-15T00:19:02.629Z,11.78
2018-04-15T00:21:30.241Z,11.93
2018-04-15T00:23:57.851Z,11.57
2018-04-15T00:26:25.445Z,11.75
2018-04-15T00:28:53.035Z,11.59
2018-04-15T00:31:20.648Z,11.62
2018-04-15T00:33:48.241Z,11.53
2018-04-15T00:36:15.862Z,11.49
2018-04-15T00:38:43.488Z,11.63
2018-04-15T00:41:11.110Z,11.72
2018-04-15T00:43:38.717Z,11.78
2018-04-15T00:46:06.319Z,11.58
2018-04-15T00:48:33.957Z,11.68
2018-04-15T00:51:01.557Z,11.78
2018-04-15T00:53:40.942Z,11.79
2018-04-15T00:56:08.584Z,11.78
2018-04-15T00:58:36.195Z,11.49
2018-04-15T01:01:03.813Z,11.40
2018-04-15T01:03:31.425Z,11.64
2018-04-15T01:05:59.065Z,11.81
2018-04-15T01:08:26.661Z,11.80
2018-04-15T01:10:54.277Z,11.78
2018-04-15T01:13:21.888Z,11.75
2018-04-15T01:15:49.521Z,11.84
2018-04-15T01:18:17.151Z,11.77
2018-04-15T01:20:44.769Z,11.76
2018-04-15T01:23:12.364Z,11.84
2018-04-15T01:25:39.957Z,11.71
2018-04-15T01:28:07.572Z,11.65
2018-04-15T01:30:35.217Z,11.79
2018-04-15T01:33:02.801Z,11.61
2018-04-15T01:35:30.406Z,11.66
2018-04-15T01:37:58.037Z,11.69
2018-04-15T01:40:25.677Z,11.68
2018-04-15T01:42:53.380Z,11.76
2018-04-15T01:45:21.047Z,11.69
2018-04-15T01:47:48.717Z,11.66
2018-04-15T01:50:16.329Z,11.48
2018-04-15T01:52:43.957Z,11.58
2018-04-15T01:55:11.597Z,11.69
2018-04-15T01:57:39.197Z,11.65
2018-04-15T02:00:06.785Z,11.79
2018-04-15T02:02:34.387Z,11.60
2018-04-15T02:05:01.989Z,11.73
2018-04-15T02:07:29.585Z,11.70
2018-04-15T02:09:57.181Z,11.50
2018-04-15T02:12:24.802Z,11.59
2018-04-15T02:14:52.396Z,11.54
2018-04-15T02:17:20.033Z,11.61
2018-04-15T02:19:47.668Z,11.79
2018-04-15T02:22:15.253Z,11.80
2018-04-15T02:24:42.845Z,11.84
2018-04-15T02:27:10.511Z,11.96
2018-04-15T02:29:38.133Z,11.95
2018-04-15T02:32:05.742Z,11.69
2018-04-15T02:34:33.336Z,11.69
2018-04-15T02:37:00.969Z,11.69
2018-04-15T02:39:28.615Z,11.83
2018-04-15T02:41:56.280Z,11.82
2018-04-15T02:44:23.877Z,11.66
2018-04-15T02:46:51.517Z,11.55
2018-04-15T02:49:19.102Z,11.82
2018-04-15T02:51:46.711Z,11.84
2018-04-15T02:54:14.341Z,11.57
2018-04-15T02:56:41.947Z,11.31
2018-04-15T02:59:09.541Z,11.25
2018-04-15T03:01:37.146Z,11.25
2018-04-15T03:04:04.827Z,11.32
2018-04-15T03:06:32.461Z,11.37
2018-04-15T03:09:00.054Z,11.56
2018-04-15T03:11:27.654Z,11.57
2018-04-15T03:13:55.253Z,11.51
2018-04-15T03:16:22.901Z,11.54
2018-04-15T03:18:50.503Z,11.48
2018-04-15T03:21:18.102Z,11.55
2018-04-15T03:23:45.698Z,11.74
2018-04-15T03:26:13.314Z,11.72
2018-04-15T03:28:40.901Z,11.58
2018-04-15T03:31:08.533Z,11.65
2018-04-15T03:33:36.132Z,11.60
2018-04-15T03:36:03.741Z,11.61
2018-04-15T03:38:31.349Z,11.71
2018-04-15T03:40:58.941Z,11.52
2018-04-15T03:43:26.562Z,11.69
2018-04-15T03:45:54.189Z,11.85
2018-04-15T03:48:21.792Z,11.92
2018-04-15T03:50:49.393Z,12.08
2018-04-15T03:53:16.985Z,12.04
2018-04-15T03:55:44.593Z,12.04
2018-04-15T03:58:12.197Z,12.09
2018-04-15T04:00:39.796Z,12.18
2018-04-15T04:03:07.416Z,12.10
2018-04-15T04:05:35.009Z,12.16
2018-04-15T04:08:02.611Z,12.15
2018-04-15T04:10:30.208Z,12.06
2018-04-15T04:12:57.827Z,12.16
2018-04-15T04:15:25.453Z,12.20
2018-04-15T04:18:04.768Z,12.19
2018-04-15T04:20:44.092Z,12.13
2018-04-15T04:23:23.356Z,12.21
2018-04-15T04:26:03.621Z,12.31
2018-04-15T04:28:31.217Z,12.20
2018-04-15T04:30:58.834Z,12.23
2018-04-15T04:33:26.439Z,12.32
2018-04-15T04:35:54.061Z,11.98
2018-04-15T04:38:21.661Z,12.08
2018-04-15T04:40:49.328Z,11.82
2018-04-15T04:43:16.943Z,11.97
2018-04-15T04:45:44.550Z,11.71
2018-04-15T04:48:12.169Z,11.82
2018-04-15T04:50:39.757Z,11.74
2018-04-15T04:53:07.390Z,11.82
2018-04-15T04:55:35.013Z,11.66
2018-04-15T04:58:02.613Z,11.60
2018-04-15T05:00:30.275Z,11.56
2018-04-15T05:02:57.868Z,11.64
2018-04-15T05:05:25.467Z,11.69
2018-04-15T05:07:53.127Z,11.90
2018-04-15T05:10:20.721Z,11.90
2018-04-15T05:12:48.361Z,12.06
2018-04-15T05:15:15.953Z,11.96
2018-04-15T05:17:43.550Z,12.13
2018-04-15T05:20:11.196Z,12.18
2018-04-15T05:22:38.797Z,12.00
2018-04-15T05:25:06.441Z,11.86
2018-04-15T05:27:34.077Z,12.05
2018-04-15T05:30:01.713Z,12.07
2018-04-15T05:32:29.315Z,11.96
2018-04-15T05:34:56.961Z,12.16
2018-04-15T05:37:24.561Z,12.37
2018-04-15T05:39:52.165Z,12.21
2018-04-15T05:42:19.765Z,12.18
2018-04-15T05:44:47.413Z,12.29
2018-04-15T05:47:14.996Z,12.18
2018-04-15T05:49:42.613Z,12.26
2018-04-15T05:52:10.243Z,12.50
2018-04-15T05:54:37.865Z,12.51
2018-04-15T05:57:05.492Z,12.64
2018-04-15T05:59:33.112Z,12.71
2018-04-15T06:02:00.709Z,12.49
2018-04-15T06:04:28.297Z,12.57
2018-04-15T06:06:55.930Z,12.78
2018-04-15T06:09:23.526Z,12.84
2018-04-15T06:11:51.121Z,12.98
2018-04-15T06:14:18.721Z,12.89
2018-04-15T06:16:46.321Z,12.67
2018-04-15T06:19:13.995Z,12.35
2018-04-15T06:21:41.621Z,12.52
2018-04-15T06:24:09.219Z,12.52
2018-04-15T06:26:36.857Z,12.70
2018-04-15T06:29:04.489Z,12.63
2018-04-15T06:31:32.097Z,12.90
2018-04-15T06:33:59.689Z,12.94
2018-04-15T06:36:27.321Z,13.18
2018-04-15T06:38:54.918Z,13.17
2018-04-15T06:41:22.529Z,13.06
2018-04-15T06:43:50.121Z,12.97
2018-04-15T06:46:18.470Z,13.04
2018-04-15T06:48:46.073Z,12.92
2018-04-15T06:51:13.757Z,13.00
2018-04-15T06:53:41.365Z,12.82
2018-04-15T06:56:09.001Z,12.83
2018-04-15T06:58:36.638Z,13.14
2018-04-15T07:01:04.238Z,13.22
2018-04-15T07:03:31.841Z,13.38
2018-04-15T07:05:59.469Z,13.41
2018-04-15T07:08:27.057Z,13.31
2018-04-15T07:10:54.661Z,13.55
2018-04-15T07:13:22.306Z,13.76
2018-04-15T07:15:49.927Z,13.64
2018-04-15T07:18:17.541Z,13.93
2018-04-15T07:20:45.161Z,13.75
2018-04-15T07:23:12.758Z,13.48
2018-04-15T07:25:40.395Z,13.79
2018-04-15T07:28:08.026Z,13.76
2018-04-15T07:30:35.636Z,13.95
2018-04-15T07:33:03.248Z,13.67
2018-04-15T07:35:30.929Z,13.67
2018-04-15T07:37:58.581Z,13.51
2018-04-15T07:40:26.192Z,13.33
2018-04-15T07:42:53.806Z,13.26
2018-04-15T07:45:21.460Z,13.55
2018-04-15T07:47:49.286Z,13.67
2018-04-15T07:50:17.298Z,13.72
2018-04-15T07:52:44.919Z,13.94
2018-04-15T07:55:12.530Z,14.09
2018-04-15T07:57:40.129Z,14.16
2018-04-15T08:00:07.745Z,14.27
2018-04-15T08:02:35.386Z,13.81
2018-04-15T08:05:02.984Z,14.22
2018-04-15T08:07:30.615Z,14.51
2018-04-15T08:09:58.257Z,14.49
2018-04-15T08:12:25.892Z,14.60
2018-04-15T08:14:53.513Z,14.85
2018-04-15T08:17:21.114Z,14.81
2018-04-15T08:19:48.769Z,14.91
2018-04-15T08:22:16.377Z,14.70
2018-04-15T08:24:43.969Z,14.59
2018-04-15T08:27:11.620Z,14.78
2018-04-15T08:29:39.229Z,14.45
2018-04-15T08:32:06.840Z,14.81
2018-04-15T08:34:34.436Z,15.09
2018-04-15T08:37:02.069Z,15.11
2018-04-15T08:39:29.661Z,15.64
2018-04-15T08:41:57.260Z,16.17
2018-04-15T08:44:24.940Z,16.17
2018-04-15T08:46:52.540Z,16.57
2018-04-15T08:49:20.155Z,16.29
2018-04-15T08:51:47.757Z,16.00
2018-04-15T08:54:15.382Z,16.27
2018-04-15T08:56:42.976Z,16.02
2018-04-15T08:59:10.569Z,15.98
2018-04-15T09:01:38.177Z,15.93
2018-04-15T09:04:05.769Z,15.80
2018-04-15T09:06:33.396Z,15.97
2018-04-15T09:09:01.015Z,15.95
2018-04-15T09:11:28.618Z,15.82
2018-04-15T09:13:56.250Z,15.51
2018-04-15T09:16:23.837Z,15.46
2018-04-15T09:18:51.441Z,15.99
2018-04-15T09:21:19.041Z,16.08
2018-04-15T09:23:46.675Z,16.32
2018-04-15T09:26:14.261Z,16.48
2018-04-15T09:28:41.873Z,16.29
2018-04-15T09:31:12.225Z,16.27
2018-04-15T09:33:39.819Z,16.94
2018-04-15T09:36:07.429Z,16.81
2018-04-15T09:38:35.033Z,16.89
2018-04-15T09:41:02.672Z,16.96
2018-04-15T09:43:30.292Z,16.43
2018-04-15T09:45:57.888Z,16.60
2018-04-15T09:48:25.490Z,17.05
2018-04-15T09:50:53.121Z,17.52
2018-04-15T09:53:20.721Z,17.52
2018-04-15T09:55:48.318Z,17.42
2018-04-15T09:58:15.949Z,17.22
2018-04-15T10:00:43.573Z,17.67
2018-04-15T10:03:11.233Z,18.01
2018-04-15T10:05:38.905Z,17.98
2018-04-15T10:08:06.538Z,18.62
2018-04-15T10:10:34.180Z,18.21
2018-04-15T10:13:01.786Z,18.07
2018-04-15T10:15:29.453Z,17.87
2018-04-15T10:17:57.077Z,18.11
2018-04-15T10:20:24.691Z,18.58
2018-04-15T10:22:52.320Z,18.14
2018-04-15T10:25:20.016Z,17.84
2018-04-15T10:27:47.613Z,18.02
2018-04-15T10:30:15.281Z,18.28
2018-04-15T10:32:42.923Z,18.56
2018-04-15T10:35:10.568Z,18.72
2018-04-15T10:37:38.181Z,19.74
2018-04-15T10:40:05.851Z,19.92
2018-04-15T10:42:33.578Z,19.01
2018-04-15T10:45:01.175Z,19.46
2018-04-15T10:47:28.757Z,19.18
2018-04-15T10:49:56.404Z,18.97
2018-04-15T10:52:24.009Z,18.58
2018-04-15T10:54:51.597Z,19.23
2018-04-15T10:57:19.219Z,19.64
2018-04-15T10:59:46.814Z,19.80
2018-04-15T11:02:14.410Z,19.51
2018-04-15T11:04:42.041Z,19.03
2018-04-15T11:07:09.649Z,19.52
2018-04-15T11:09:37.251Z,19.68
2018-04-15T11:12:04.849Z,19.79
2018-04-15T11:14:32.450Z,19.57
2018-04-15T11:17:00.049Z,19.72
2018-04-15T11:19:27.649Z,20.29
2018-04-15T11:21:55.305Z,21.81
2018-04-15T11:24:22.912Z,22.15
2018-04-15T11:26:50.535Z,22.09
2018-04-15T11:29:18.129Z,23.17
2018-04-15T11:31:45.730Z,22.57
2018-04-15T11:34:13.342Z,23.72
2018-04-15T11:36:40.975Z,24.45
2018-04-15T11:39:08.581Z,23.57
2018-04-15T11:41:36.169Z,23.54
2018-04-15T11:44:03.783Z,21.85
2018-04-15T11:46:31.389Z,22.48
2018-04-15T11:48:59.031Z,22.66
2018-04-15T11:51:26.662Z,22.38
2018-04-15T11:53:54.262Z,21.37
2018-04-15T11:56:21.898Z,21.47
2018-04-15T11:58:49.581Z,20.81
2018-04-15T12:01:17.185Z,20.52
2018-04-15T12:03:44.842Z,20.47
2018-04-15T12:06:12.451Z,21.54
2018-04-15T12:08:40.041Z,22.64
2018-04-15T12:11:07.679Z,23.45
2018-04-15T12:13:35.286Z,24.23
2018-04-15T12:16:03.730Z,23.35
2018-04-15T12:18:31.761Z,23.43
2018-04-15T12:20:59.370Z,23.71
2018-04-15T12:23:27.001Z,24.57
2018-04-15T12:25:54.627Z,24.12
2018-04-15T12:28:22.218Z,23.53
2018-04-15T12:30:53.734Z,23.31
2018-04-15T12:33:21.338Z,23.52
2018-04-15T12:35:48.968Z,23.03
2018-04-15T12:38:16.657Z,23.34
2018-04-15T12:40:44.390Z,24.29
2018-04-15T12:43:12.009Z,24.46
2018-04-15T12:45:40.125Z,23.92
2018-04-15T12:48:07.772Z,24.28
2018-04-15T12:50:35.380Z,24.15
2018-04-15T12:53:02.990Z,24.00
2018-04-15T12:55:30.637Z,23.65
2018-04-15T12:57:58.237Z,23.96
2018-04-15T13:00:25.849Z,23.43
2018-04-15T13:02:53.441Z,23.46
2018-04-15T13:05:21.073Z,22.58
2018-04-15T13:07:48.677Z,22.43
2018-04-15T13:10:16.929Z,22.36
2018-04-15T13:12:44.558Z,22.13
2018-04-15T13:15:12.181Z,21.83
2018-04-15T13:17:39.794Z,21.85
2018-04-15T13:20:07.397Z,21.72
2018-04-15T13:22:34.997Z,21.42
2018-04-15T13:25:02.629Z,21.23
2018-04-15T13:27:30.266Z,21.27
2018-04-15T13:29:57.862Z,21.26
2018-04-15T13:32:25.477Z,20.91
2018-04-15T13:34:53.085Z,21.16
2018-04-15T13:37:20.677Z,20.56
2018-04-15T13:39:48.281Z,20.49
2018-04-15T13:42:15.897Z,20.44
2018-04-15T13:44:43.551Z,20.32
2018-04-15T13:47:11.173Z,20.03
2018-04-15T13:49:38.770Z,20.11
2018-04-15T13:52:06.453Z,19.72
2018-04-15T13:54:34.072Z,19.86
2018-04-15T13:57:01.683Z,19.71
2018-04-15T13:59:29.317Z,19.57
2018-04-15T14:01:56.915Z,19.70
2018-04-15T14:04:24.514Z,19.63
2018-04-15T14:06:52.116Z,19.68
2018-04-15T14:09:19.833Z,19.53
2018-04-15T14:11:47.494Z,19.64
2018-04-15T14:14:15.086Z,19.61
2018-04-15T14:16:42.725Z,19.90
2018-04-15T14:19:10.324Z,19.76
2018-04-15T14:21:37.921Z,19.45
2018-04-15T14:24:05.599Z,19.48
2018-04-15T14:26:33.242Z,19.41
2018-04-15T14:29:00.849Z,19.39
2018-04-15T14:31:28.501Z,19.18
2018-04-15T14:33:56.099Z,19.27
2018-04-15T14:36:23.699Z,19.26
2018-04-15T14:38:51.333Z,19.03
2018-04-15T14:41:18.966Z,19.24
2018-04-15T14:43:46.561Z,19.26
2018-04-15T14:46:14.210Z,19.18
2018-04-15T14:48:41.817Z,19.05
2018-04-15T14:51:09.415Z,19.36
2018-04-15T14:53:37.021Z,19.17
2018-04-15T14:56:04.653Z,19.06
2018-04-15T14:58:32.265Z,18.89
2018-04-15T15:00:59.870Z,18.91
2018-04-15T15:03:27.489Z,19.08
2018-04-15T15:05:55.146Z,19.07
2018-04-15T15:08:22.831Z,18.96
2018-04-15T15:10:50.425Z,18.68
2018-04-15T15:13:18.124Z,18.52
2018-04-15T15:15:45.767Z,18.40
2018-04-15T15:18:13.442Z,18.32
2018-04-15T15:20:41.056Z,18.22
2018-04-15T15:23:08.714Z,18.22
2018-04-15T15:25:36.365Z,18.38
2018-04-15T15:28:04.098Z,18.44
2018-04-15T15:30:31.718Z,18.42
2018-04-15T15:32:59.439Z,18.52
2018-04-15T15:35:27.068Z,18.24
2018-04-15T15:37:54.677Z,18.18
2018-04-15T15:40:22.354Z,18.09
2018-04-15T15:42:50.109Z,18.22
2018-04-15T15:45:17.773Z,18.12
2018-04-15T15:47:45.481Z,18.10
2018-04-15T15:50:13.101Z,18.10
2018-04-15T15:52:40.739Z,18.10
2018-04-15T15:55:08.352Z,17.99
2018-04-15T15:57:35.986Z,17.88
2018-04-15T16:00:03.672Z,17.93
2018-04-15T16:02:31.303Z,17.98
2018-04-15T16:04:58.904Z,18.04
2018-04-15T16:07:26.512Z,18.09
2018-04-15T16:09:54.117Z,18.08
2018-04-15T16:12:21.719Z,18.14
2018-04-15T16:14:49.384Z,17.87
2018-04-15T16:17:16.982Z,17.62
2018-04-15T16:19:44.589Z,17.63
2018-04-15T16:22:12.194Z,17.54
2018-04-15T16:24:39.800Z,17.60
2018-04-15T16:27:08.105Z,17.60
2018-04-15T16:29:35.706Z,17.37
2018-04-15T16:32:03.384Z,17.19
2018-04-15T16:34:30.995Z,17.16
2018-04-15T16:36:58.626Z,17.17
2018-04-15T16:39:26.225Z,17.30
2018-04-15T16:41:53.817Z,17.33
2018-04-15T16:44:21.449Z,17.13
2018-04-15T16:46:49.101Z,17.18
2018-04-15T16:49:16.706Z,17.18
2018-04-15T16:51:44.311Z,17.40
2018-04-15T16:54:11.917Z,17.29
2018-04-15T16:56:39.517Z,17.36
2018-04-15T16:59:07.126Z,17.19
2018-04-15T17:01:34.725Z,17.06
2018-04-15T17:04:02.383Z,17.40
2018-04-15T17:06:29.998Z,17.18
2018-04-15T17:08:57.611Z,17.19
2018-04-15T17:11:25.225Z,17.26
2018-04-15T17:13:52.817Z,17.30
2018-04-15T17:16:20.472Z,17.23
2018-04-15T17:18:48.093Z,17.31
2018-04-15T17:21:15.703Z,17.10
2018-04-15T17:23:43.323Z,17.03
2018-04-15T17:26:10.996Z,16.98
2018-04-15T17:28:42.328Z,16.83
2018-04-15T17:31:09.925Z,17.03
2018-04-15T17:33:37.528Z,16.94
2018-04-15T17:36:05.149Z,16.86
2018-04-15T17:38:32.754Z,16.90
2018-04-15T17:41:00.436Z,16.85
2018-04-15T17:43:28.019Z,16.85
2018-04-15T17:45:55.634Z,16.78
2018-04-15T17:48:23.255Z,16.83
2018-04-15T17:50:50.942Z,16.87
2018-04-15T17:53:18.545Z,16.81
2018-04-15T17:55:46.194Z,16.97
2018-04-15T17:58:13.813Z,17.05
2018-04-15T18:00:41.442Z,16.89
2018-04-15T18:03:09.042Z,16.75
2018-04-15T18:05:36.682Z,16.96
2018-04-15T18:08:05.274Z,16.90
2018-04-15T18:10:32.881Z,16.82
2018-04-15T18:13:01.511Z,16.79
2018-04-15T18:15:29.174Z,16.94
2018-04-15T18:17:56.771Z,17.10
2018-04-15T18:20:24.421Z,16.96
2018-04-15T18:22:52.054Z,16.79
2018-04-15T18:25:19.653Z,16.77
2018-04-15T18:27:47.293Z,16.80
2018-04-15T18:30:14.933Z,16.69
2018-04-15T18:32:42.550Z,16.64
2018-04-15T18:35:10.213Z,16.74
2018-04-15T18:37:37.842Z,16.74
2018-04-15T18:40:05.481Z,16.69
2018-04-15T18:42:33.139Z,16.79
2018-04-15T18:45:00.765Z,16.66
2018-04-15T18:47:28.387Z,16.51
2018-04-15T18:49:56.081Z,16.63
2018-04-15T18:52:23.707Z,16.55
2018-04-15T18:54:51.367Z,16.64
2018-04-15T18:57:19.006Z,16.59
2018-04-15T18:59:46.698Z,16.49
2018-04-15T19:02:14.332Z,16.58
2018-04-15T19:04:41.934Z,16.58
2018-04-15T19:07:09.554Z,16.64
2018-04-15T19:09:37.217Z,16.72
2018-04-15T19:12:04.867Z,16.67
2018-04-15T19:14:32.467Z,16.76
2018-04-15T19:17:00.118Z,16.76
2018-04-15T19:19:27.755Z,16.50
2018-04-15T19:21:55.430Z,16.32
2018-04-15T19:24:23.042Z,16.47
2018-04-15T19:26:50.646Z,16.50
2018-04-15T19:29:18.246Z,16.57
2018-04-15T19:31:45.950Z,16.46
2018-04-15T19:34:13.634Z,16.33
2018-04-15T19:36:41.242Z,16.27
2018-04-15T19:39:08.849Z,16.26
2018-04-15T19:41:36.489Z,16.25
2018-04-15T19:44:04.093Z,16.33
2018-04-15T19:46:31.710Z,16.42
2018-04-15T19:48:59.397Z,16.24
2018-04-15T19:51:27.046Z,16.41
2018-04-15T19:53:54.666Z,16.22
2018-04-15T19:56:22.312Z,16.13
2018-04-15T19:58:49.906Z,16.22
2018-04-15T20:01:17.501Z,16.06
2018-04-15T20:03:45.149Z,16.24
2018-04-15T20:06:12.770Z,16.03
2018-04-15T20:08:40.369Z,15.95
2018-04-15T20:11:08.215Z,16.05
2018-04-15T20:13:35.854Z,15.84
2018-04-15T20:16:03.449Z,15.88
2018-04-15T20:18:31.106Z,15.82
2018-04-15T20:20:58.846Z,16.03
2018-04-15T20:23:26.526Z,15.97
2018-04-15T20:25:54.130Z,16.15
2018-04-15T20:28:21.770Z,16.10
2018-04-15T20:30:49.424Z,16.00
2018-04-15T20:33:17.030Z,15.92
2018-04-15T20:35:44.621Z,15.89
2018-04-15T20:38:12.233Z,15.94
2018-04-15T20:40:39.900Z,15.92
2018-04-15T20:43:07.495Z,15.67
2018-04-15T20:45:35.141Z,15.63
2018-04-15T20:48:02.774Z,15.59
2018-04-15T20:50:30.370Z,15.79
2018-04-15T20:52:57.962Z,15.60
2018-04-15T20:55:25.569Z,15.59
2018-04-15T20:57:53.182Z,15.46
2018-04-15T21:00:20.785Z,15.49
2018-04-15T21:02:48.386Z,15.53
2018-04-15T21:05:16.011Z,15.32
2018-04-15T21:07:43.649Z,15.31
2018-04-15T21:10:11.313Z,15.57
2018-04-15T21:12:38.908Z,15.56
2018-04-15T21:15:06.521Z,15.59
2018-04-15T21:17:34.172Z,15.53
2018-04-15T21:20:01.778Z,15.49
2018-04-15T21:22:29.420Z,15.46
2018-04-15T21:24:57.025Z,15.46
2018-04-15T21:27:24.659Z,15.75
2018-04-15T21:29:52.253Z,15.70
2018-04-15T21:32:19.904Z,15.64
2018-04-15T21:34:47.509Z,15.62
2018-04-15T21:37:15.155Z,15.68
2018-04-15T21:39:42.753Z,15.70
2018-04-15T21:42:10.386Z,15.78
2018-04-15T21:44:37.997Z,15.79
2018-04-15T21:47:05.589Z,15.83
2018-04-15T21:49:33.197Z,15.82
2018-04-15T21:52:00.892Z,15.85
2018-04-15T21:54:28.489Z,15.83
2018-04-15T21:56:56.117Z,15.84
2018-04-15T21:59:23.712Z,15.81
2018-04-15T22:01:51.315Z,15.81
2018-04-15T22:04:18.918Z,15.88
2018-04-15T22:06:46.529Z,15.92
2018-04-15T22:09:14.169Z,15.84
2018-04-15T22:11:53.435Z,15.86
2018-04-15T22:14:21.035Z,15.87
2018-04-15T22:16:48.685Z,15.75
2018-04-15T22:19:16.329Z,15.70
2018-04-15T22:21:43.925Z,15.81
2018-04-15T22:24:11.562Z,15.72
2018-04-15T22:26:39.193Z,15.70
2018-04-15T22:29:06.841Z,15.64
2018-04-15T22:31:34.444Z,15.47
2018-04-15T22:34:02.087Z,15.42
2018-04-15T22:36:29.677Z,15.60
2018-04-15T22:38:57.312Z,15.50
2018-04-15T22:41:24.924Z,15.55
2018-04-15T22:43:52.605Z,15.57
2018-04-15T22:46:20.217Z,15.26
2018-04-15T22:48:47.866Z,15.32
2018-04-15T22:51:15.457Z,15.29
2018-04-15T22:53:43.095Z,15.36
2018-04-15T22:56:10.727Z,15.42
2018-04-15T22:58:44.025Z,15.46
2018-04-15T23:01:11.637Z,15.51
2018-04-15T23:03:39.243Z,15.48
2018-04-15T23:06:06.876Z,15.55
2018-04-15T23:08:34.473Z,15.50
2018-04-15T23:11:02.093Z,15.26
2018-04-15T23:13:29.754Z,15.23
2018-04-15T23:15:57.388Z,15.27
2018-04-15T23:18:25.009Z,15.15
2018-04-15T23:20:52.737Z,15.26
2018-04-15T23:23:20.333Z,15.17
2018-04-15T23:25:47.949Z,15.17
2018-04-15T23:28:15.581Z,15.26
2018-04-15T23:30:43.181Z,15.17
2018-04-15T23:33:10.769Z,15.10
2018-04-15T23:35:38.408Z,15.10
2018-04-15T23:38:06.002Z,15.16
2018-04-15T23:40:33.605Z,15.05
2018-04-15T23:43:02.824Z,14.97
2018-04-15T23:45:30.467Z,14.85
2018-04-15T23:47:58.070Z,14.92
2018-04-15T23:50:25.666Z,14.91
2018-04-15T23:52:53.273Z,14.85
2018-04-15T23:55:20.912Z,14.78
2018-04-15T23:57:48.517Z,14.72
